Time;durP1;ratioP1;P1;durP2;ratioP2;P2;SDS_P1;SDS_P2;PMS_P1;PMS_P2;Temp;Humidity;BMP_temperature;BMP_pressure;BME280_temperature;BME280_humidity;BME280_pressure;Samples;Min_cycle;Max_cycle;Signal;HPM_P1;HPM_P2
2023/01/08 00:01:57;;;;;;;2.40;2.20;;;16.50;67.70;17.20;99662.00;;;;5028897;28;20206;-45
2023/01/08 00:04:23;;;;;;;2.40;2.10;;;16.50;67.70;16.90;99742.00;;;;5028683;28;20233;-44
2023/01/08 00:06:49;;;;;;;2.30;2.10;;;16.40;67.60;17.00;99738.00;;;;5012466;28;20659;-44
2023/01/08 00:09:14;;;;;;;2.07;1.90;;;16.40;67.70;17.30;99752.00;;;;5029162;28;20195;-43
2023/01/08 00:11:40;;;;;;;2.27;2.13;;;16.40;67.60;17.30;99749.00;;;;5012739;28;20214;-45
2023/01/08 00:14:06;;;;;;;2.27;2.00;;;16.50;67.60;17.30;99752.00;;;;5029330;28;20182;-46
2023/01/08 00:16:32;;;;;;;2.60;2.17;;;16.50;67.40;17.40;99760.00;;;;5012231;28;20222;-46
2023/01/08 00:18:57;;;;;;;2.10;1.90;;;16.60;67.30;17.40;99751.00;;;;5028670;28;20191;-44
2023/01/08 00:21:23;;;;;;;1.90;1.80;;;16.60;67.10;17.50;99736.00;;;;5011329;28;20189;-44
2023/01/08 00:23:49;;;;;;;2.20;2.00;;;16.70;67.10;17.50;99740.00;;;;5028675;28;20193;-45
2023/01/08 00:26:15;;;;;;;1.97;1.87;;;16.80;67.00;17.60;99733.00;;;;5028421;28;20191;-46
2023/01/08 00:28:40;;;;;;;2.87;2.10;;;16.80;66.90;17.60;99640.00;;;;5028486;28;20258;-43
2023/01/08 00:31:08;;;;;;;1.90;1.80;;;16.80;66.90;17.60;99736.00;;;;5027834;28;20199;-43
2023/01/08 00:33:34;;;;;;;2.00;1.90;;;16.90;67.00;17.60;99727.00;;;;5011625;28;20546;-45
2023/01/08 00:36:00;;;;;;;1.90;1.80;;;16.90;66.90;17.70;99631.00;;;;5031129;28;20255;-45
2023/01/08 00:38:26;;;;;;;1.90;1.80;;;16.90;66.80;17.70;99720.00;;;;5032817;28;20187;-45
2023/01/08 00:40:52;;;;;;;1.90;1.80;;;17.00;66.90;17.70;99711.00;;;;5027768;28;20246;-44
2023/01/08 00:43:18;;;;;;;2.30;2.10;;;17.00;66.80;17.80;99716.00;;;;5027501;28;20382;-45
2023/01/08 00:45:44;;;;;;;2.00;1.80;;;16.90;66.80;17.80;99647.00;;;;5028001;28;20253;-43
2023/01/08 00:48:10;;;;;;;2.77;1.90;;;16.90;66.90;17.80;99728.00;;;;5027487;28;20216;-44
2023/01/08 00:50:35;;;;;;;2.13;1.90;;;16.90;66.80;17.80;99717.00;;;;5027199;28;20180;-45
2023/01/08 00:53:02;;;;;;;2.17;2.00;;;16.90;67.00;17.80;99632.00;;;;5028322;28;20178;-45
2023/01/08 00:55:28;;;;;;;1.93;1.83;;;17.00;67.10;17.80;99717.00;;;;5011052;28;20668;-45
2023/01/08 00:57:54;;;;;;;2.50;1.80;;;16.90;67.20;17.80;99639.00;;;;5027378;28;20186;-45
2023/01/08 01:00:20;;;;;;;2.07;1.93;;;16.90;67.20;17.80;99695.00;;;;5027821;28;20624;-46
2023/01/08 01:02:46;;;;;;;1.90;1.80;;;16.90;67.20;17.80;99693.00;;;;5010677;28;20237;-43
2023/01/08 01:05:14;;;;;;;1.80;1.70;;;16.90;67.30;17.80;99621.00;;;;5013202;28;20212;-45
2023/01/08 01:07:41;;;;;;;1.83;1.73;;;16.90;67.40;17.80;99625.00;;;;5030729;28;20174;-45
2023/01/08 01:10:07;;;;;;;2.00;1.90;;;16.90;67.40;17.80;99615.00;;;;5015800;28;20202;-44
2023/01/08 01:12:33;;;;;;;1.93;1.83;;;16.90;67.40;17.80;99704.00;;;;5015461;28;20215;-46
2023/01/08 01:14:59;;;;;;;1.90;1.77;;;16.90;67.40;17.80;99670.00;;;;5032831;28;20203;-45
2023/01/08 01:17:25;;;;;;;2.07;1.90;;;16.90;67.40;17.80;99704.00;;;;5031259;28;20207;-44
2023/01/08 01:19:50;;;;;;;1.80;1.70;;;16.90;67.60;17.50;99703.00;;;;5033718;28;20334;-44
2023/01/08 01:22:16;;;;;;;1.87;1.77;;;16.80;67.40;17.80;99643.00;;;;5016990;28;20177;-44
2023/01/08 01:24:42;;;;;;;2.10;1.90;;;16.80;67.50;17.80;99712.00;;;;5032445;28;20211;-45
2023/01/08 01:27:07;;;;;;;2.17;1.90;;;16.80;67.60;17.80;99709.00;;;;5031025;28;20178;-44
2023/01/08 01:29:33;;;;;;;1.80;1.70;;;16.80;67.60;17.80;99638.00;;;;5014373;28;20171;-45
2023/01/08 01:31:59;;;;;;;1.90;1.80;;;16.80;67.60;17.80;99603.00;;;;5014277;28;20235;-44
2023/01/08 01:34:25;;;;;;;2.10;2.00;;;16.80;67.60;17.80;99709.00;;;;5031550;28;20693;-45
2023/01/08 01:36:50;;;;;;;1.90;1.80;;;16.80;67.60;17.80;99691.00;;;;5030770;28;20629;-44
2023/01/08 01:39:18;;;;;;;5.30;1.80;;;16.90;68.00;17.80;99701.00;;;;5030880;28;20182;-45
2023/01/08 01:41:44;;;;;;;4.20;2.00;;;16.80;67.80;17.80;99621.00;;;;5014524;28;20291;-44
2023/01/08 01:44:33;;;;;;;2.00;1.80;;;16.90;67.90;17.50;99694.00;;;;5030569;28;20199;-45
2023/01/08 01:47:29;;;;;;;3.10;2.10;;;16.80;67.80;17.70;99694.00;;;;5032141;28;20640;-45
2023/01/08 01:50:09;;;;;;;1.93;1.80;;;16.80;67.70;17.70;99700.00;;;;5026907;28;20192;-44
2023/01/08 01:52:39;;;;;;;2.83;1.97;;;16.70;67.70;17.70;99622.00;;;;5030323;28;20159;-44
2023/01/08 01:55:05;;;;;;;2.00;1.80;;;16.80;67.70;17.70;99704.00;;;;5030779;28;20737;-45
2023/01/08 01:57:31;;;;;;;1.90;1.80;;;16.70;67.60;17.70;99630.00;;;;5014121;28;20229;-45
2023/01/08 01:59:56;;;;;;;2.10;1.90;;;16.70;67.60;17.20;99704.00;;;;5013882;28;20195;-45
2023/01/08 02:02:22;;;;;;;1.90;1.80;;;16.60;67.50;17.60;99690.00;;;;5030180;28;20753;-45
2023/01/08 02:04:48;;;;;;;1.97;1.80;;;16.70;67.60;17.60;99620.00;;;;5030388;28;20799;-45
2023/01/08 02:07:58;;;;;;;2.47;1.93;;;16.60;67.30;17.60;99683.00;;;;5030618;28;20178;-44
2023/01/08 02:11:05;;;;;;;1.80;1.70;;;16.60;67.40;17.60;99680.00;;;;5008591;28;20194;-44
2023/01/08 02:13:35;;;;;;;2.13;1.70;;;16.60;67.40;17.60;99546.00;;;;4942883;28;20189;-45
2023/01/08 02:16:16;;;;;;;2.00;1.90;;;16.60;67.30;17.50;99690.00;;;;5009583;28;20211;-44
2023/01/08 02:19:41;;;;;;;1.90;1.80;;;16.60;67.20;17.50;99677.00;;;;5029808;28;20191;-45
2023/01/08 02:22:31;;;;;;;1.77;1.67;;;16.60;67.30;17.50;99660.00;;;;5008048;28;20193;-46
2023/01/08 02:25:05;;;;;;;1.90;1.80;;;16.60;67.30;17.50;99664.00;;;;5029687;28;20234;-46
2023/01/08 02:27:30;;;;;;;1.80;1.70;;;16.60;67.40;17.50;99661.00;;;;5029976;28;20163;-45
2023/01/08 02:29:56;;;;;;;1.80;1.70;;;16.50;67.20;17.50;99603.00;;;;5032389;28;20190;-44
2023/01/08 02:32:26;;;;;;;1.97;1.80;;;16.50;67.30;17.40;99650.00;;;;5029488;28;20175;-45
2023/01/08 02:34:52;;;;;;;1.60;1.50;;;16.60;67.40;17.40;99647.00;;;;5030017;28;20779;-45
2023/01/08 02:37:18;;;;;;;1.97;1.80;;;16.60;67.20;17.40;99653.00;;;;5030077;28;20165;-44
2023/01/08 02:40:07;;;;;;;1.80;1.70;;;16.50;67.10;17.40;99641.00;;;;5029922;28;20186;-45
2023/01/08 02:43:13;;;;;;;1.97;1.83;;;16.50;67.20;17.40;99637.00;;;;5029168;28;20163;-45
2023/01/08 02:45:56;;;;;;;1.87;1.77;;;16.40;67.10;17.40;99631.00;;;;5030309;28;20249;-45
2023/01/08 02:48:41;;;;;;;2.10;1.80;;;16.40;67.20;17.40;99632.00;;;;5029554;28;20206;-46
2023/01/08 02:51:34;;;;;;;1.70;1.60;;;16.40;67.20;17.40;99625.00;;;;5029790;28;20251;-44
2023/01/08 02:54:03;;;;;;;1.70;1.60;;;16.40;67.20;17.30;99552.00;;;;5029945;28;20503;-46
2023/01/08 02:56:39;;;;;;;2.00;1.80;;;16.40;67.20;17.30;99613.00;;;;5029339;28;20199;-46
2023/01/08 02:59:04;;;;;;;1.80;1.70;;;16.40;67.20;17.30;99613.00;;;;5029699;28;20212;-45
2023/01/08 03:01:30;;;;;;;1.63;1.53;;;16.40;67.10;17.30;99533.00;;;;5029519;28;20183;-44
2023/01/08 03:03:59;;;;;;;1.80;1.70;;;16.40;67.20;17.30;99598.00;;;;5029419;28;20265;-45
2023/01/08 03:06:25;;;;;;;1.80;1.70;;;16.40;67.40;17.30;99603.00;;;;5012857;28;20202;-43
2023/01/08 03:08:51;;;;;;;2.03;1.80;;;16.40;67.10;17.30;99600.00;;;;5012730;28;20176;-46
2023/01/08 03:11:21;;;;;;;1.80;1.70;;;16.30;67.10;17.30;99608.00;;;;5028764;28;20174;-42
2023/01/08 03:14:03;;;;;;;3.00;1.90;;;16.40;67.30;17.30;99599.00;;;;5029034;28;20170;-45
2023/01/08 03:16:34;;;;;;;1.90;1.80;;;16.30;67.20;17.30;99613.00;;;;5029320;28;20762;-45
2023/01/08 03:19:27;;;;;;;1.90;1.80;;;16.30;67.10;17.20;99538.00;;;;5028974;28;20195;-45
2023/01/08 03:21:54;;;;;;;1.90;1.80;;;16.30;67.20;17.20;99592.00;;;;5031126;28;20190;-45
2023/01/08 03:24:24;;;;;;;1.87;1.77;;;16.30;67.10;17.20;99590.00;;;;5040381;28;20199;-45
2023/01/08 03:26:50;;;;;;;1.80;1.70;;;16.30;67.20;17.20;99594.00;;;;5036354;28;20669;-44
2023/01/08 03:29:18;;;;;;;2.00;1.80;;;16.30;67.20;17.20;99577.00;;;;5032887;28;20178;-44
2023/01/08 03:31:43;;;;;;;1.70;1.60;;;16.30;67.20;17.20;99578.00;;;;5029276;28;20182;-44
2023/01/08 03:34:09;;;;;;;1.80;1.70;;;16.30;67.20;17.20;99582.00;;;;5028957;28;20180;-42
2023/01/08 03:36:35;;;;;;;2.00;1.90;;;16.20;67.10;17.20;99580.00;;;;5014594;28;20206;-46
2023/01/08 03:39:15;;;;;;;2.00;1.80;;;16.20;67.10;17.10;99585.00;;;;5028833;28;20206;-46
2023/01/08 03:41:40;;;;;;;1.80;1.70;;;16.20;67.20;17.10;99572.00;;;;5028348;28;20532;-47
2023/01/08 03:44:06;;;;;;;1.63;1.53;;;16.20;67.10;17.10;99569.00;;;;5029768;28;20259;-45
2023/01/08 03:46:34;;;;;;;2.00;1.90;;;16.20;67.10;17.10;99503.00;;;;5031238;28;20672;-44
2023/01/08 03:49:00;;;;;;;1.70;1.60;;;16.20;67.10;17.10;99505.00;;;;5012321;28;20229;-45
2023/01/08 03:51:26;;;;;;;1.70;1.60;;;16.20;67.10;17.10;99579.00;;;;5028586;28;20167;-44
2023/01/08 03:53:53;;;;;;;2.03;1.50;;;16.20;67.00;17.10;99490.00;;;;5029921;28;20291;-45
2023/01/08 03:56:19;;;;;;;1.80;1.70;;;16.20;67.00;17.10;99586.00;;;;5028689;28;20198;-45
2023/01/08 03:58:45;;;;;;;2.10;1.90;;;16.20;67.00;17.10;99579.00;;;;5029925;28;20179;-44
2023/01/08 04:01:10;;;;;;;1.90;1.80;;;16.10;66.90;17.10;99566.00;;;;5028134;28;20167;-45
2023/01/08 04:03:36;;;;;;;2.00;1.90;;;16.10;66.90;17.10;99565.00;;;;5029656;28;20236;-45
2023/01/08 04:06:02;;;;;;;1.80;1.70;;;16.20;67.00;17.10;99570.00;;;;5029350;28;20265;-44
2023/01/08 04:08:28;;;;;;;1.80;1.70;;;16.20;67.00;17.10;99595.00;;;;5029464;28;20171;-44
2023/01/08 04:10:53;;;;;;;1.90;1.80;;;16.20;67.00;17.10;99570.00;;;;5028152;28;20168;-46
2023/01/08 04:13:19;;;;;;;2.00;1.90;;;16.10;66.90;17.10;99570.00;;;;5011365;28;20182;-46
2023/01/08 04:15:49;;;;;;;2.07;1.90;;;16.20;68.00;17.10;99565.00;;;;5011209;28;20195;-45
2023/01/08 04:18:15;;;;;;;2.00;1.87;;;16.10;67.10;17.10;99571.00;;;;5028270;28;20827;-46
2023/01/08 04:20:45;;;;;;;3.80;1.97;;;16.10;67.90;17.10;99557.00;;;;5028967;28;20170;-45
2023/01/08 04:23:11;;;;;;;4.53;2.10;;;16.10;67.50;17.10;99562.00;;;;5027659;28;20171;-44
2023/01/08 04:25:37;;;;;;;2.20;1.80;;;16.10;67.30;17.10;99549.00;;;;5028007;28;20706;-45
2023/01/08 04:28:03;;;;;;;1.90;1.80;;;16.10;67.20;17.10;99552.00;;;;5011470;28;20178;-45
2023/01/08 04:30:29;;;;;;;2.30;2.10;;;16.10;67.20;17.10;99556.00;;;;5011319;28;20179;-45
2023/01/08 04:32:55;;;;;;;3.37;1.90;;;16.10;67.00;17.10;99549.00;;;;5027575;28;20781;-44
2023/01/08 04:35:20;;;;;;;1.77;1.67;;;16.10;67.10;17.00;99555.00;;;;5027727;28;20554;-43
2023/01/08 04:37:46;;;;;;;2.30;1.80;;;16.10;67.00;17.10;99548.00;;;;5027963;28;20190;-46
2023/01/08 04:40:12;;;;;;;1.80;1.70;;;16.10;67.00;17.10;99495.00;;;;5029132;28;20182;-45
2023/01/08 04:42:38;;;;;;;2.10;1.90;;;16.20;67.00;17.10;99547.00;;;;5009923;28;20190;-45
2023/01/08 04:45:05;;;;;;;2.53;1.87;;;16.10;66.80;17.10;99535.00;;;;5028024;28;20210;-45
2023/01/08 04:47:31;;;;;;;2.80;1.70;;;16.10;66.90;17.10;99552.00;;;;5027737;28;20228;-44
2023/01/08 04:49:57;;;;;;;1.80;1.70;;;16.10;66.80;17.10;99542.00;;;;5027755;28;20171;-46
2023/01/08 04:52:22;;;;;;;2.37;1.70;;;16.10;66.80;16.60;99497.00;;;;5027197;28;20354;-44
2023/01/08 04:54:48;;;;;;;2.27;1.90;;;16.10;66.80;17.10;99462.00;;;;4987792;28;20302;-47
2023/01/08 04:57:14;;;;;;;1.80;1.70;;;16.10;66.80;17.10;99508.00;;;;5006811;28;20194;-45
2023/01/08 04:59:39;;;;;;;2.30;1.90;;;16.10;66.80;17.10;99528.00;;;;5007976;28;20213;-45
2023/01/08 05:02:05;;;;;;;1.90;1.80;;;16.10;66.80;17.10;99542.00;;;;5007986;28;20187;-44
2023/01/08 05:04:31;;;;;;;3.07;1.73;;;16.10;66.80;17.10;99456.00;;;;5007246;28;20246;-44
2023/01/08 05:06:57;;;;;;;1.90;1.70;;;16.00;66.60;17.10;99450.00;;;;5007669;28;20701;-44
2023/01/08 05:09:22;;;;;;;3.97;1.70;;;16.00;66.60;17.00;99529.00;;;;5007629;28;20628;-44
2023/01/08 05:11:48;;;;;;;2.30;1.70;;;16.00;66.60;17.00;99529.00;;;;5007601;28;20542;-45
2023/01/08 05:14:14;;;;;;;1.90;1.80;;;16.00;66.80;17.00;99520.00;;;;5007316;28;20752;-44
2023/01/08 05:16:40;;;;;;;2.10;1.80;;;16.00;66.80;17.00;99517.00;;;;5008044;28;20195;-44
2023/01/08 05:19:05;;;;;;;1.80;1.70;;;16.00;66.90;17.00;99515.00;;;;5008594;28;20246;-44
2023/01/08 05:21:31;;;;;;;2.53;1.63;;;16.00;66.90;17.00;99504.00;;;;5007041;28;20207;-44
2023/01/08 05:23:57;;;;;;;2.40;1.80;;;16.00;66.90;17.00;99445.00;;;;5006899;28;20171;-45
2023/01/08 05:26:23;;;;;;;3.70;1.80;;;16.00;67.00;17.00;99424.00;;;;5007352;28;20246;-46
2023/01/08 05:28:48;;;;;;;2.53;1.70;;;16.00;67.00;17.00;99519.00;;;;4990912;28;20354;-45
2023/01/08 05:31:14;;;;;;;2.57;1.73;;;16.00;67.00;16.70;99532.00;;;;5007773;28;20251;-45
2023/01/08 05:33:40;;;;;;;1.60;1.50;;;16.00;67.00;17.00;99506.00;;;;5007298;28;20580;-44
2023/01/08 05:36:07;;;;;;;2.00;1.80;;;16.00;67.00;17.00;99505.00;;;;5007229;28;20195;-45
2023/01/08 05:38:33;;;;;;;1.90;1.70;;;16.00;67.10;17.00;99505.00;;;;5006865;28;20338;-45
2023/01/08 05:40:59;;;;;;;2.00;1.70;;;16.00;66.90;16.90;99509.00;;;;5006275;28;20697;-49
2023/01/08 05:43:25;;;;;;;2.23;1.80;;;15.80;67.10;16.90;99480.00;;;;5018306;28;20186;-44
2023/01/08 05:45:51;;;;;;;1.77;1.67;;;15.80;67.20;16.90;99461.00;;;;5017883;28;20722;-44
2023/01/08 05:48:16;;;;;;;1.90;1.63;;;15.90;67.30;17.00;99520.00;;;;5006978;28;20157;-45
2023/01/08 05:50:42;;;;;;;2.43;1.70;;;15.90;67.30;17.00;99516.00;;;;5007893;28;20199;-45
2023/01/08 05:53:08;;;;;;;2.90;1.60;;;15.90;67.20;17.00;99504.00;;;;5007650;28;20172;-44
2023/01/08 05:55:34;;;;;;;1.70;1.60;;;15.90;67.00;17.00;99514.00;;;;4995138;28;20597;-47
2023/01/08 05:58:01;;;;;;;2.80;1.67;;;15.90;67.10;17.00;99525.00;;;;4995680;28;20257;-45
2023/01/08 06:00:27;;;;;;;1.70;1.60;;;15.90;67.00;17.00;99445.00;;;;5005650;28;20231;-44
2023/01/08 06:02:53;;;;;;;1.53;1.43;;;15.90;66.90;17.00;99511.00;;;;5029018;28;20204;-43
2023/01/08 06:05:19;;;;;;;1.60;1.50;;;15.90;67.00;17.00;99515.00;;;;5026118;28;20675;-43
2023/01/08 06:07:44;;;;;;;1.87;1.67;;;15.90;66.90;17.00;99519.00;;;;4996307;28;20161;-45
2023/01/08 06:10:10;;;;;;;1.50;1.40;;;15.90;66.90;17.00;99511.00;;;;5014796;28;20195;-44
2023/01/08 06:12:36;;;;;;;1.70;1.60;;;15.90;66.90;17.00;99440.00;;;;4999401;28;20172;-45
2023/01/08 06:15:03;;;;;;;1.70;1.60;;;15.90;66.90;17.00;99436.00;;;;5010814;28;20194;-44
2023/01/08 06:17:29;;;;;;;1.50;1.40;;;15.90;66.90;17.00;99504.00;;;;4978369;28;20660;-44
2023/01/08 06:19:54;;;;;;;1.57;1.47;;;15.90;66.90;17.00;99507.00;;;;5012134;28;20198;-45
2023/01/08 06:22:20;;;;;;;1.50;1.40;;;15.90;66.80;17.00;99509.00;;;;5010481;28;20249;-44
2023/01/08 06:24:46;;;;;;;1.40;1.30;;;15.90;66.70;17.00;99511.00;;;;4994259;28;20208;-44
2023/01/08 06:27:12;;;;;;;1.50;1.40;;;15.90;66.80;17.00;99512.00;;;;5010789;28;20167;-45
2023/01/08 06:29:37;;;;;;;1.50;1.40;;;15.90;66.80;16.90;99445.00;;;;5010833;28;20199;-45
2023/01/08 06:32:03;;;;;;;1.63;1.53;;;15.80;66.70;16.90;99427.00;;;;5009892;28;20176;-45
2023/01/08 06:34:29;;;;;;;1.57;1.47;;;15.80;66.70;16.90;99517.00;;;;4993418;28;20195;-45
2023/01/08 06:36:55;;;;;;;1.53;1.40;;;15.80;66.70;16.90;99524.00;;;;4994356;28;20176;-44
2023/01/08 06:39:21;;;;;;;2.57;1.50;;;15.80;66.70;16.90;99519.00;;;;4993891;28;20190;-45
2023/01/08 06:41:46;;;;;;;1.40;1.33;;;15.80;66.70;16.90;99521.00;;;;4993917;28;20741;-46
2023/01/08 06:44:12;;;;;;;1.60;1.50;;;15.80;66.60;16.90;99505.00;;;;5009807;28;20534;-44
2023/01/08 06:46:38;;;;;;;1.60;1.50;;;15.80;66.60;16.90;99504.00;;;;4994527;28;20172;-44
2023/01/08 06:49:05;;;;;;;1.40;1.37;;;15.80;66.60;16.70;99433.00;;;;5011041;28;20600;-47
2023/01/08 06:51:31;;;;;;;1.30;1.20;;;15.80;66.60;16.90;99502.00;;;;4995791;28;20180;-45
2023/01/08 06:53:58;;;;;;;1.10;1.10;;;15.80;66.60;16.90;99510.00;;;;4993823;28;20172;-44
2023/01/08 06:56:24;;;;;;;1.50;1.40;;;15.80;66.70;16.90;99440.00;;;;4994095;28;20673;-45
2023/01/08 06:58:49;;;;;;;1.40;1.30;;;15.80;66.60;16.90;99515.00;;;;4993765;28;20179;-44
2023/01/08 07:01:15;;;;;;;1.57;1.40;;;15.80;66.60;16.90;99515.00;;;;5009302;28;20603;-44
2023/01/08 07:03:41;;;;;;;1.60;1.50;;;15.80;66.60;16.90;99535.00;;;;4993649;28;20214;-45
2023/01/08 07:06:14;;;;;;;1.67;1.53;;;15.80;66.50;16.70;99572.00;;;;4992183;28;20254;-43
2023/01/08 07:08:39;;;;;;;1.37;1.30;;;15.80;66.60;16.90;99524.00;;;;5009940;28;20247;-44
2023/01/08 07:11:05;;;;;;;1.40;1.40;;;15.70;66.40;16.90;99587.00;;;;4993107;28;20259;-44
2023/01/08 07:13:31;;;;;;;1.60;1.50;;;15.70;66.40;16.90;99588.00;;;;4993028;28;20180;-46
2023/01/08 07:15:57;;;;;;;1.30;1.30;;;15.70;66.40;16.90;99595.00;;;;5009294;28;20204;-44
2023/01/08 07:18:22;;;;;;;1.40;1.30;;;15.70;66.40;16.90;99597.00;;;;5009741;28;20207;-45
2023/01/08 07:20:48;;;;;;;1.37;1.30;;;15.70;66.40;16.90;99573.00;;;;4993315;28;20168;-45
2023/01/08 07:23:14;;;;;;;1.40;1.40;;;15.70;66.40;16.80;99499.00;;;;4992677;28;20472;-46
2023/01/08 07:25:40;;;;;;;1.47;1.40;;;15.70;66.40;16.80;99578.00;;;;5009291;28;20310;-46
2023/01/08 07:28:08;;;;;;;1.40;1.30;;;15.70;66.50;16.80;99509.00;;;;5010990;28;20207;-45
2023/01/08 07:30:33;;;;;;;1.50;1.40;;;15.70;66.50;16.80;99516.00;;;;5009622;28;20176;-46
2023/01/08 07:33:02;;;;;;;1.17;1.17;;;15.70;66.40;16.80;99592.00;;;;5009069;28;20267;-43
2023/01/08 07:35:28;;;;;;;1.20;1.20;;;15.70;66.50;16.80;99602.00;;;;5011080;28;20199;-45
2023/01/08 07:37:54;;;;;;;1.50;1.40;;;15.70;66.50;16.80;99594.00;;;;5016492;28;20246;-44
2023/01/08 07:40:19;;;;;;;1.37;1.30;;;15.70;66.50;16.80;99605.00;;;;5016126;28;20556;-45
2023/01/08 07:42:45;;;;;;;1.10;1.10;;;15.70;66.50;16.80;99511.00;;;;5013280;28;20175;-44
2023/01/08 07:45:11;;;;;;;1.10;1.10;;;15.70;66.50;16.80;99586.00;;;;4992897;28;20218;-44
2023/01/08 07:47:37;;;;;;;1.50;1.40;;;15.70;66.40;16.80;99509.00;;;;5010011;28;20176;-47
2023/01/08 07:50:03;;;;;;;1.30;1.20;;;15.60;66.30;16.80;99599.00;;;;4993177;28;20263;-45
2023/01/08 07:52:28;;;;;;;1.60;1.50;;;15.60;66.30;16.80;99535.00;;;;4991994;28;20274;-45
2023/01/08 07:54:54;;;;;;;1.20;1.07;;;15.70;66.40;16.80;99584.00;;;;4992386;28;20811;-44
2023/01/08 07:57:20;;;;;;;1.23;1.23;;;15.60;66.40;16.80;99582.00;;;;5008784;28;20179;-45
2023/01/08 07:59:45;;;;;;;1.30;1.20;;;15.60;66.40;16.80;99572.00;;;;4992895;28;20245;-45
2023/01/08 08:02:11;;;;;;;1.10;1.10;;;15.60;66.50;16.80;99563.00;;;;4991800;28;20175;-44
2023/01/08 08:04:37;;;;;;;1.33;1.23;;;15.60;66.50;16.80;99579.00;;;;5009666;28;20226;-45
2023/01/08 08:07:03;;;;;;;1.40;1.30;;;15.60;66.50;16.50;99483.00;;;;5010066;28;20843;-45
2023/01/08 08:09:28;;;;;;;1.20;1.10;;;15.60;66.40;16.80;99575.00;;;;5008993;28;20617;-45
2023/01/08 08:11:54;;;;;;;1.23;1.20;;;15.60;66.40;16.70;99580.00;;;;5003399;28;20178;-45
2023/01/08 08:14:20;;;;;;;0.93;0.93;;;15.60;66.50;16.70;99565.00;;;;5028381;28;20270;-45
2023/01/08 08:16:46;;;;;;;1.53;1.30;;;15.60;66.50;16.70;99556.00;;;;5012203;28;20202;-45
2023/01/08 08:19:12;;;;;;;1.30;1.20;;;15.60;66.50;16.70;99567.00;;;;5027427;28;20725;-45
2023/01/08 08:21:37;;;;;;;1.00;1.00;;;15.60;66.40;16.70;99547.00;;;;5011407;28;20174;-45
2023/01/08 08:24:04;;;;;;;1.93;1.10;;;15.60;66.50;16.70;99560.00;;;;5027558;28;20175;-42
2023/01/08 08:26:30;;;;;;;1.03;1.00;;;15.50;66.60;16.70;99566.00;;;;5006949;28;20283;-45
2023/01/08 08:28:55;;;;;;;1.83;1.20;;;15.50;66.60;16.70;99573.00;;;;5008145;28;20262;-45
2023/01/08 08:31:21;;;;;;;1.27;1.17;;;15.60;66.60;16.70;99562.00;;;;4991885;28;20641;-44
2023/01/08 08:33:47;;;;;;;1.10;1.10;;;15.60;66.70;16.70;99561.00;;;;4992218;28;20275;-45
2023/01/08 08:36:12;;;;;;;2.93;1.23;;;15.50;66.80;16.70;99554.00;;;;5008425;28;20278;-45
2023/01/08 08:38:38;;;;;;;1.30;1.20;;;15.60;66.90;16.70;99434.00;;;;5009176;28;20179;-44
2023/01/08 08:41:04;;;;;;;1.30;1.10;;;15.70;66.90;16.70;99549.00;;;;4992516;28;20196;-44
2023/01/08 08:43:30;;;;;;;1.60;1.23;;;15.80;66.90;16.80;99512.00;;;;4991888;28;20172;-44
2023/01/08 08:45:56;;;;;;;1.03;1.03;;;15.90;66.80;16.80;99544.00;;;;5008536;28;20555;-45
2023/01/08 08:48:22;;;;;;;1.43;1.23;;;16.00;66.50;16.90;99446.00;;;;5008479;28;20247;-45
2023/01/08 08:50:48;;;;;;;3.03;1.30;;;16.10;66.40;16.90;99540.00;;;;4991698;28;20176;-45
2023/01/08 08:53:14;;;;;;;1.33;1.20;;;16.30;66.30;17.00;99533.00;;;;5007910;28;20704;-45
2023/01/08 08:55:40;;;;;;;1.33;1.13;;;16.50;66.20;17.10;99444.00;;;;5008906;28;20242;-43
2023/01/08 08:58:11;;;;;;;0.90;0.90;;;16.60;65.90;17.20;99522.00;;;;5009599;28;20191;-44
2023/01/08 09:00:40;;;;;;;1.37;1.27;;;16.70;65.80;17.30;99516.00;;;;5021555;28;20199;-44
2023/01/08 09:03:08;;;;;;;1.00;1.00;;;16.90;65.70;17.40;99519.00;;;;4994370;28;20564;-46
2023/01/08 09:05:36;;;;;;;1.30;1.23;;;17.00;65.40;17.50;99513.00;;;;5016874;28;20223;-45
2023/01/08 09:08:02;;;;;;;1.47;1.37;;;17.10;65.30;17.60;99515.00;;;;5024299;28;20173;-44
2023/01/08 09:10:28;;;;;;;1.57;1.40;;;17.20;65.20;17.70;99514.00;;;;5018486;28;20176;-44
2023/01/08 09:12:54;;;;;;;2.67;1.07;;;17.30;65.20;17.80;99512.00;;;;4992979;28;20172;-45
2023/01/08 09:15:20;;;;;;;0.83;0.83;;;17.40;65.40;17.90;99520.00;;;;5008343;28;20203;-45
2023/01/08 09:17:54;;;;;;;2.27;1.10;;;17.50;65.80;17.90;99502.00;;;;5008289;28;20222;-45
2023/01/08 09:20:21;;;;;;;3.47;1.40;;;17.60;65.60;18.00;99447.00;;;;4992065;28;20675;-45
2023/01/08 09:22:46;;;;;;;6.43;1.60;;;17.70;65.50;18.10;99513.00;;;;5007651;28;20830;-46
2023/01/08 09:25:12;;;;;;;6.80;1.67;;;17.70;65.50;18.20;99514.00;;;;4994363;28;20213;-46
2023/01/08 09:27:38;;;;;;;1.57;1.20;;;17.80;65.70;18.30;99509.00;;;;4988538;28;20211;-45
2023/01/08 09:30:04;;;;;;;4.43;1.40;;;17.90;65.70;18.40;99512.00;;;;4993761;28;20256;-45
2023/01/08 09:32:30;;;;;;;2.40;1.30;;;17.90;65.70;18.40;99509.00;;;;4993283;28;20268;-44
2023/01/08 09:34:56;;;;;;;10.63;1.77;;;18.00;65.40;18.50;99511.00;;;;4993840;28;20290;-45
2023/01/08 09:37:22;;;;;;;3.27;1.60;;;18.10;65.30;18.60;99524.00;;;;4999800;28;20723;-44
2023/01/08 09:39:49;;;;;;;4.57;1.37;;;18.20;65.10;18.60;99514.00;;;;5012211;28;20216;-45
2023/01/08 09:42:15;;;;;;;6.70;1.50;;;18.20;65.20;18.70;99449.00;;;;5012719;28;20187;-45
2023/01/08 09:44:42;;;;;;;8.13;1.50;;;18.20;65.30;18.70;99505.00;;;;5011839;28;20290;-45
2023/01/08 09:47:34;;;;;;;4.40;1.70;;;18.30;65.60;18.80;99510.00;;;;5011314;28;20179;-44
2023/01/08 09:50:03;;;;;;;5.20;1.40;;;18.30;65.80;18.80;99447.00;;;;5011384;28;20166;-44
2023/01/08 09:52:29;;;;;;;3.90;1.50;;;18.30;65.80;18.80;99436.00;;;;4978609;28;20180;-44
2023/01/08 09:54:55;;;;;;;4.20;1.20;;;18.30;65.70;18.90;99508.00;;;;5012125;28;20205;-46
2023/01/08 09:57:21;;;;;;;2.93;1.20;;;18.40;65.80;18.90;99493.00;;;;5010953;28;20187;-45
2023/01/08 09:59:48;;;;;;;5.20;1.50;;;18.40;65.90;18.90;99488.00;;;;5011079;28;20163;-46
2023/01/08 10:02:19;;;;;;;2.47;1.30;;;18.30;65.90;18.90;99483.00;;;;5011317;28;20266;-44
2023/01/08 10:04:44;;;;;;;1.40;0.83;;;18.30;66.00;18.70;99486.00;;;;5010927;28;20215;-45
2023/01/08 10:07:20;;;;;;;2.67;1.20;;;18.30;66.00;19.00;99424.00;;;;5011109;28;20171;-45
2023/01/08 10:09:48;;;;;;;1.63;1.37;;;18.30;66.20;19.00;99481.00;;;;5010755;28;20166;-44
2023/01/08 10:12:14;;;;;;;4.73;1.40;;;18.40;66.20;19.00;99471.00;;;;4994673;28;20179;-44
2023/01/08 10:14:46;;;;;;;1.53;1.17;;;18.30;66.20;19.00;99477.00;;;;5010823;28;20221;-47
2023/01/08 10:17:37;;;;;;;1.40;1.30;;;18.30;66.40;19.00;99397.00;;;;4995164;28;20566;-43
2023/01/08 10:20:22;;;;;;;2.37;1.23;;;18.40;66.60;18.80;99468.00;;;;5010705;28;20195;-44
2023/01/08 10:22:48;;;;;;;2.03;1.00;;;18.30;66.50;19.00;99463.00;;;;5010305;28;20182;-44
2023/01/08 10:25:23;;;;;;;2.70;1.37;;;18.40;66.50;19.10;99464.00;;;;5009853;28;20211;-46
2023/01/08 10:27:53;;;;;;;1.30;1.20;;;18.40;66.50;19.10;99467.00;;;;4993695;28;20261;-44
2023/01/08 10:30:22;;;;;;;1.53;1.27;;;18.40;66.40;19.10;99417.00;;;;5009978;28;20171;-44
2023/01/08 10:32:52;;;;;;;3.07;1.20;;;18.40;66.40;19.10;99449.00;;;;5010479;28;20606;-43
2023/01/08 10:35:20;;;;;;;1.77;1.37;;;18.50;66.60;19.10;99439.00;;;;5010842;28;20195;-44
2023/01/08 10:37:46;;;;;;;1.27;1.17;;;18.50;66.40;19.20;99439.00;;;;5011282;28;20175;-44
2023/01/08 10:40:36;;;;;;;1.43;1.07;;;18.60;66.30;19.20;99440.00;;;;5011544;28;20775;-44
2023/01/08 10:43:16;;;;;;;1.27;1.17;;;18.60;66.30;19.20;99353.00;;;;4993876;28;20629;-44
2023/01/08 10:45:42;;;;;;;2.53;1.10;;;18.70;67.00;19.30;99427.00;;;;5009949;28;20283;-44
2023/01/08 10:48:16;;;;;;;3.77;1.40;;;18.70;67.00;19.30;99422.00;;;;5010409;28;20247;-44
2023/01/08 10:50:41;;;;;;;2.07;1.23;;;18.80;67.00;19.30;99428.00;;;;5010270;28;20164;-45
2023/01/08 10:53:24;;;;;;;3.37;0.97;;;18.80;67.00;19.30;99358.00;;;;5007580;28;20176;-43
2023/01/08 10:56:01;;;;;;;2.30;1.00;;;18.80;67.30;19.40;99421.00;;;;5006007;28;20215;-43
2023/01/08 10:58:28;;;;;;;3.07;1.30;;;18.80;67.20;19.40;99404.00;;;;5009505;28;20229;-44
2023/01/08 11:00:54;;;;;;;1.40;1.10;;;18.80;67.30;19.40;99402.00;;;;5006848;28;20229;-46